sensor_id;sensor_type;location;lat;lon;timestamp;P1;durP1;ratioP1;P2;durP2;ratioP2
43646;SDS011;56152;49.996;18.980;2023-03-20T00:03:52;42.15;;;19.67;;
43646;SDS011;56152;49.996;18.980;2023-03-20T00:08:55;45.10;;;21.40;;
43646;SDS011;56152;49.996;18.980;2023-03-20T00:14:01;40.50;;;19.75;;
43646;SDS011;56152;49.996;18.980;2023-03-20T00:19:05;33.58;;;19.88;;
43646;SDS011;56152;49.996;18.980;2023-03-20T00:24:14;46.95;;;23.52;;
43646;SDS011;56152;49.996;18.980;2023-03-20T00:29:20;40.72;;;21.45;;
43646;SDS011;56152;49.996;18.980;2023-03-20T00:34:26;40.33;;;22.08;;
43646;SDS011;56152;49.996;18.980;2023-03-20T00:39:30;42.53;;;23.13;;
43646;SDS011;56152;49.996;18.980;2023-03-20T00:44:36;80.63;;;32.97;;
43646;SDS011;56152;49.996;18.980;2023-03-20T00:49:40;98.30;;;34.03;;
43646;SDS011;56152;49.996;18.980;2023-03-20T00:54:44;58.60;;;24.13;;
43646;SDS011;56152;49.996;18.980;2023-03-20T00:59:52;77.75;;;29.75;;
43646;SDS011;56152;49.996;18.980;2023-03-20T01:04:59;83.53;;;29.60;;
43646;SDS011;56152;49.996;18.980;2023-03-20T01:10:08;71.75;;;28.25;;
43646;SDS011;56152;49.996;18.980;2023-03-20T01:15:19;52.40;;;23.48;;
43646;SDS011;56152;49.996;18.980;2023-03-20T01:20:24;44.03;;;21.77;;
43646;SDS011;56152;49.996;18.980;2023-03-20T01:25:34;43.10;;;18.67;;
43646;SDS011;56152;49.996;18.980;2023-03-20T01:30:44;52.58;;;24.17;;
43646;SDS011;56152;49.996;18.980;2023-03-20T01:35:48;51.83;;;24.08;;
43646;SDS011;56152;49.996;18.980;2023-03-20T01:40:52;67.55;;;27.75;;
43646;SDS011;56152;49.996;18.980;2023-03-20T01:46:03;60.17;;;28.70;;
43646;SDS011;56152;49.996;18.980;2023-03-20T01:51:17;52.60;;;25.52;;
43646;SDS011;56152;49.996;18.980;2023-03-20T01:56:21;51.67;;;22.75;;
43646;SDS011;56152;49.996;18.980;2023-03-20T02:01:27;52.45;;;23.60;;
43646;SDS011;56152;49.996;18.980;2023-03-20T02:06:30;52.20;;;24.58;;
43646;SDS011;56152;49.996;18.980;2023-03-20T02:11:35;72.10;;;32.22;;
43646;SDS011;56152;49.996;18.980;2023-03-20T02:16:40;45.45;;;23.80;;
43646;SDS011;56152;49.996;18.980;2023-03-20T02:21:51;45.05;;;23.70;;
43646;SDS011;56152;49.996;18.980;2023-03-20T02:27:14;81.27;;;37.30;;
43646;SDS011;56152;49.996;18.980;2023-03-20T02:38:15;43.78;;;21.50;;
43646;SDS011;56152;49.996;18.980;2023-03-20T02:43:41;55.42;;;28.52;;
43646;SDS011;56152;49.996;18.980;2023-03-20T02:48:52;46.63;;;26.67;;
43646;SDS011;56152;49.996;18.980;2023-03-20T02:54:02;49.53;;;24.27;;
43646;SDS011;56152;49.996;18.980;2023-03-20T02:59:15;44.92;;;22.48;;
43646;SDS011;56152;49.996;18.980;2023-03-20T03:04:28;46.38;;;25.75;;
43646;SDS011;56152;49.996;18.980;2023-03-20T03:09:37;52.92;;;29.30;;
43646;SDS011;56152;49.996;18.980;2023-03-20T03:14:45;41.17;;;24.05;;
43646;SDS011;56152;49.996;18.980;2023-03-20T03:19:49;42.30;;;22.50;;
43646;SDS011;56152;49.996;18.980;2023-03-20T03:24:59;40.08;;;22.88;;
43646;SDS011;56152;49.996;18.980;2023-03-20T03:30:02;48.50;;;26.52;;
43646;SDS011;56152;49.996;18.980;2023-03-20T03:35:09;68.10;;;36.95;;
43646;SDS011;56152;49.996;18.980;2023-03-20T03:40:19;71.22;;;37.58;;
43646;SDS011;56152;49.996;18.980;2023-03-20T03:45:34;59.95;;;32.40;;
43646;SDS011;56152;49.996;18.980;2023-03-20T03:50:41;68.55;;;35.65;;
43646;SDS011;56152;49.996;18.980;2023-03-20T03:55:51;65.40;;;35.90;;
43646;SDS011;56152;49.996;18.980;2023-03-20T04:00:56;75.78;;;41.45;;
43646;SDS011;56152;49.996;18.980;2023-03-20T04:06:05;54.05;;;32.40;;
43646;SDS011;56152;49.996;18.980;2023-03-20T04:11:15;73.88;;;38.42;;
43646;SDS011;56152;49.996;18.980;2023-03-20T04:16:20;57.08;;;31.80;;
43646;SDS011;56152;49.996;18.980;2023-03-20T04:21:31;63.30;;;32.88;;
43646;SDS011;56152;49.996;18.980;2023-03-20T04:26:37;77.20;;;37.45;;
43646;SDS011;56152;49.996;18.980;2023-03-20T04:31:40;69.80;;;36.58;;
43646;SDS011;56152;49.996;18.980;2023-03-20T04:36:47;51.47;;;29.70;;
43646;SDS011;56152;49.996;18.980;2023-03-20T04:41:52;53.85;;;30.35;;
43646;SDS011;56152;49.996;18.980;2023-03-20T04:46:54;51.67;;;28.13;;
43646;SDS011;56152;49.996;18.980;2023-03-20T04:51:56;64.20;;;33.85;;
43646;SDS011;56152;49.996;18.980;2023-03-20T04:57:01;58.05;;;31.90;;
43646;SDS011;56152;49.996;18.980;2023-03-20T05:02:07;57.53;;;29.75;;
43646;SDS011;56152;49.996;18.980;2023-03-20T05:07:15;44.38;;;25.42;;
43646;SDS011;56152;49.996;18.980;2023-03-20T05:12:19;54.70;;;28.83;;
43646;SDS011;56152;49.996;18.980;2023-03-20T05:17:22;64.93;;;33.25;;
43646;SDS011;56152;49.996;18.980;2023-03-20T05:22:25;37.42;;;23.77;;
43646;SDS011;56152;49.996;18.980;2023-03-20T05:27:31;35.10;;;20.30;;
43646;SDS011;56152;49.996;18.980;2023-03-20T05:32:36;50.80;;;26.67;;
43646;SDS011;56152;49.996;18.980;2023-03-20T05:37:43;44.78;;;21.88;;
43646;SDS011;56152;49.996;18.980;2023-03-20T05:42:50;42.70;;;22.67;;
43646;SDS011;56152;49.996;18.980;2023-03-20T05:47:52;29.83;;;16.75;;
43646;SDS011;56152;49.996;18.980;2023-03-20T05:52:54;34.90;;;18.95;;
43646;SDS011;56152;49.996;18.980;2023-03-20T05:58:00;34.03;;;18.25;;
43646;SDS011;56152;49.996;18.980;2023-03-20T06:03:02;30.75;;;15.63;;
43646;SDS011;56152;49.996;18.980;2023-03-20T06:08:07;24.20;;;12.98;;
43646;SDS011;56152;49.996;18.980;2023-03-20T06:13:11;17.05;;;11.48;;
43646;SDS011;56152;49.996;18.980;2023-03-20T06:18:13;26.65;;;12.43;;
43646;SDS011;56152;49.996;18.980;2023-03-20T06:23:15;21.73;;;12.38;;
43646;SDS011;56152;49.996;18.980;2023-03-20T06:28:19;21.65;;;10.77;;
43646;SDS011;56152;49.996;18.980;2023-03-20T06:33:21;32.28;;;13.50;;
43646;SDS011;56152;49.996;18.980;2023-03-20T06:38:26;26.63;;;13.90;;
43646;SDS011;56152;49.996;18.980;2023-03-20T06:43:31;23.35;;;12.75;;
43646;SDS011;56152;49.996;18.980;2023-03-20T06:48:32;22.48;;;13.30;;
43646;SDS011;56152;49.996;18.980;2023-03-20T06:53:35;23.15;;;12.40;;
43646;SDS011;56152;49.996;18.980;2023-03-20T06:58:40;26.20;;;12.68;;
43646;SDS011;56152;49.996;18.980;2023-03-20T07:03:42;23.60;;;12.10;;
43646;SDS011;56152;49.996;18.980;2023-03-20T07:08:46;24.20;;;14.35;;
43646;SDS011;56152;49.996;18.980;2023-03-20T07:13:49;22.63;;;10.88;;
43646;SDS011;56152;49.996;18.980;2023-03-20T07:18:55;24.92;;;13.73;;
43646;SDS011;56152;49.996;18.980;2023-03-20T07:23:57;23.33;;;13.52;;
43646;SDS011;56152;49.996;18.980;2023-03-20T07:29:04;24.85;;;13.57;;
43646;SDS011;56152;49.996;18.980;2023-03-20T07:34:06;31.50;;;13.88;;
43646;SDS011;56152;49.996;18.980;2023-03-20T07:39:08;23.13;;;13.60;;
43646;SDS011;56152;49.996;18.980;2023-03-20T07:44:13;21.08;;;13.02;;
43646;SDS011;56152;49.996;18.980;2023-03-20T07:49:18;23.70;;;13.73;;
43646;SDS011;56152;49.996;18.980;2023-03-20T07:54:20;27.15;;;15.05;;
43646;SDS011;56152;49.996;18.980;2023-03-20T07:59:24;23.10;;;14.23;;
43646;SDS011;56152;49.996;18.980;2023-03-20T08:04:28;25.85;;;15.43;;
43646;SDS011;56152;49.996;18.980;2023-03-20T08:09:31;24.88;;;15.13;;
43646;SDS011;56152;49.996;18.980;2023-03-20T08:14:36;26.13;;;16.05;;
43646;SDS011;56152;49.996;18.980;2023-03-20T08:19:42;29.25;;;16.02;;
43646;SDS011;56152;49.996;18.980;2023-03-20T08:24:45;34.58;;;16.75;;
43646;SDS011;56152;49.996;18.980;2023-03-20T08:29:48;30.23;;;18.23;;
43646;SDS011;56152;49.996;18.980;2023-03-20T08:34:50;31.75;;;18.33;;
43646;SDS011;56152;49.996;18.980;2023-03-20T08:39:54;24.75;;;16.98;;
43646;SDS011;56152;49.996;18.980;2023-03-20T08:44:59;25.95;;;16.08;;
43646;SDS011;56152;49.996;18.980;2023-03-20T08:50:05;27.67;;;16.20;;
43646;SDS011;56152;49.996;18.980;2023-03-20T08:55:09;31.00;;;17.00;;
43646;SDS011;56152;49.996;18.980;2023-03-20T09:00:14;42.53;;;21.60;;
43646;SDS011;56152;49.996;18.980;2023-03-20T09:05:19;33.05;;;20.70;;
43646;SDS011;56152;49.996;18.980;2023-03-20T09:10:26;27.92;;;17.58;;
43646;SDS011;56152;49.996;18.980;2023-03-20T09:15:31;26.52;;;18.27;;
43646;SDS011;56152;49.996;18.980;2023-03-20T09:20:34;30.10;;;18.60;;
43646;SDS011;56152;49.996;18.980;2023-03-20T09:25:36;28.58;;;18.00;;
43646;SDS011;56152;49.996;18.980;2023-03-20T09:30:40;31.23;;;19.83;;
43646;SDS011;56152;49.996;18.980;2023-03-20T09:35:43;26.52;;;16.23;;
43646;SDS011;56152;49.996;18.980;2023-03-20T09:40:49;32.75;;;19.95;;
43646;SDS011;56152;49.996;18.980;2023-03-20T09:45:56;26.67;;;19.05;;
43646;SDS011;56152;49.996;18.980;2023-03-20T09:51:07;30.23;;;18.27;;
43646;SDS011;56152;49.996;18.980;2023-03-20T09:56:20;31.33;;;20.48;;
43646;SDS011;56152;49.996;18.980;2023-03-20T10:01:28;34.15;;;21.80;;
43646;SDS011;56152;49.996;18.980;2023-03-20T10:11:49;24.23;;;16.75;;
43646;SDS011;56152;49.996;18.980;2023-03-20T10:17:07;30.02;;;17.92;;
43646;SDS011;56152;49.996;18.980;2023-03-20T10:22:21;28.75;;;17.67;;
43646;SDS011;56152;49.996;18.980;2023-03-20T10:27:27;25.55;;;16.98;;
43646;SDS011;56152;49.996;18.980;2023-03-20T10:32:36;27.10;;;16.38;;
43646;SDS011;56152;49.996;18.980;2023-03-20T10:37:51;29.52;;;20.27;;
43646;SDS011;56152;49.996;18.980;2023-03-20T10:43:02;26.00;;;18.98;;
43646;SDS011;56152;49.996;18.980;2023-03-20T10:48:15;23.67;;;17.95;;
43646;SDS011;56152;49.996;18.980;2023-03-20T10:53:26;21.07;;;15.80;;
43646;SDS011;56152;49.996;18.980;2023-03-20T10:58:48;27.85;;;20.00;;
43646;SDS011;56152;49.996;18.980;2023-03-20T11:04:00;28.92;;;19.10;;
43646;SDS011;56152;49.996;18.980;2023-03-20T11:09:10;35.40;;;23.33;;
43646;SDS011;56152;49.996;18.980;2023-03-20T11:14:18;31.80;;;20.25;;
43646;SDS011;56152;49.996;18.980;2023-03-20T11:19:26;29.40;;;20.00;;
43646;SDS011;56152;49.996;18.980;2023-03-20T11:24:35;31.73;;;20.60;;
43646;SDS011;56152;49.996;18.980;2023-03-20T11:29:40;24.75;;;17.45;;
43646;SDS011;56152;49.996;18.980;2023-03-20T11:34:45;32.28;;;20.95;;
43646;SDS011;56152;49.996;18.980;2023-03-20T11:39:57;22.02;;;16.40;;
43646;SDS011;56152;49.996;18.980;2023-03-20T11:45:01;26.35;;;18.10;;
43646;SDS011;56152;49.996;18.980;2023-03-20T11:50:23;27.27;;;19.38;;
43646;SDS011;56152;49.996;18.980;2023-03-20T11:55:32;29.02;;;19.50;;
43646;SDS011;56152;49.996;18.980;2023-03-20T12:00:36;30.80;;;19.92;;
43646;SDS011;56152;49.996;18.980;2023-03-20T12:05:41;25.58;;;17.02;;
43646;SDS011;56152;49.996;18.980;2023-03-20T12:10:47;23.98;;;15.68;;
43646;SDS011;56152;49.996;18.980;2023-03-20T12:15:56;24.13;;;16.30;;
43646;SDS011;56152;49.996;18.980;2023-03-20T12:21:06;26.05;;;15.20;;
43646;SDS011;56152;49.996;18.980;2023-03-20T12:26:13;24.38;;;15.18;;
43646;SDS011;56152;49.996;18.980;2023-03-20T12:31:22;21.85;;;15.45;;
43646;SDS011;56152;49.996;18.980;2023-03-20T12:36:31;17.23;;;12.73;;
43646;SDS011;56152;49.996;18.980;2023-03-20T12:41:37;20.48;;;14.15;;
43646;SDS011;56152;49.996;18.980;2023-03-20T12:46:50;19.58;;;12.68;;
43646;SDS011;56152;49.996;18.980;2023-03-20T12:52:05;18.35;;;13.00;;
43646;SDS011;56152;49.996;18.980;2023-03-20T12:57:17;18.13;;;13.60;;
43646;SDS011;56152;49.996;18.980;2023-03-20T13:02:38;19.85;;;13.00;;
43646;SDS011;56152;49.996;18.980;2023-03-20T13:08:00;15.02;;;11.80;;
43646;SDS011;56152;49.996;18.980;2023-03-20T13:13:15;14.05;;;10.15;;
43646;SDS011;56152;49.996;18.980;2023-03-20T13:18:28;17.25;;;11.00;;
43646;SDS011;56152;49.996;18.980;2023-03-20T13:23:45;18.73;;;12.27;;
43646;SDS011;56152;49.996;18.980;2023-03-20T13:28:59;17.55;;;11.57;;
43646;SDS011;56152;49.996;18.980;2023-03-20T13:34:09;19.27;;;13.13;;
43646;SDS011;56152;49.996;18.980;2023-03-20T13:39:26;18.58;;;11.95;;
43646;SDS011;56152;49.996;18.980;2023-03-20T13:44:38;23.65;;;15.63;;
43646;SDS011;56152;49.996;18.980;2023-03-20T13:49:43;45.00;;;23.15;;
43646;SDS011;56152;49.996;18.980;2023-03-20T13:54:58;43.10;;;21.17;;
43646;SDS011;56152;49.996;18.980;2023-03-20T14:00:17;56.42;;;26.92;;
43646;SDS011;56152;49.996;18.980;2023-03-20T14:05:27;30.60;;;17.67;;
43646;SDS011;56152;49.996;18.980;2023-03-20T14:10:38;63.23;;;35.13;;
43646;SDS011;56152;49.996;18.980;2023-03-20T14:15:51;22.33;;;12.77;;
43646;SDS011;56152;49.996;18.980;2023-03-20T14:20:56;16.15;;;10.55;;
43646;SDS011;56152;49.996;18.980;2023-03-20T14:26:03;12.30;;;9.65;;
43646;SDS011;56152;49.996;18.980;2023-03-20T14:31:12;11.73;;;8.25;;
43646;SDS011;56152;49.996;18.980;2023-03-20T14:36:25;22.10;;;12.68;;
43646;SDS011;56152;49.996;18.980;2023-03-20T14:41:51;30.50;;;15.70;;
43646;SDS011;56152;49.996;18.980;2023-03-20T14:47:04;31.75;;;18.63;;
43646;SDS011;56152;49.996;18.980;2023-03-20T14:52:17;22.13;;;14.50;;
43646;SDS011;56152;49.996;18.980;2023-03-20T14:57:41;22.65;;;13.27;;
43646;SDS011;56152;49.996;18.980;2023-03-20T15:02:45;28.55;;;17.45;;
43646;SDS011;56152;49.996;18.980;2023-03-20T15:07:52;50.05;;;28.85;;
43646;SDS011;56152;49.996;18.980;2023-03-20T15:12:59;41.75;;;32.35;;
43646;SDS011;56152;49.996;18.980;2023-03-20T15:18:06;40.17;;;25.52;;
43646;SDS011;56152;49.996;18.980;2023-03-20T15:23:13;49.08;;;30.30;;
43646;SDS011;56152;49.996;18.980;2023-03-20T15:28:18;35.38;;;22.08;;
43646;SDS011;56152;49.996;18.980;2023-03-20T15:33:23;24.83;;;15.60;;
43646;SDS011;56152;49.996;18.980;2023-03-20T15:38:31;34.92;;;20.55;;
43646;SDS011;56152;49.996;18.980;2023-03-20T15:43:37;26.25;;;16.38;;
43646;SDS011;56152;49.996;18.980;2023-03-20T15:48:39;26.88;;;18.02;;
43646;SDS011;56152;49.996;18.980;2023-03-20T15:53:43;38.88;;;26.60;;
43646;SDS011;56152;49.996;18.980;2023-03-20T15:58:54;28.27;;;18.17;;
43646;SDS011;56152;49.996;18.980;2023-03-20T16:04:04;65.90;;;31.70;;
43646;SDS011;56152;49.996;18.980;2023-03-20T16:09:07;78.63;;;34.50;;
43646;SDS011;56152;49.996;18.980;2023-03-20T16:14:17;67.38;;;31.42;;
43646;SDS011;56152;49.996;18.980;2023-03-20T16:19:27;103.65;;;48.97;;
43646;SDS011;56152;49.996;18.980;2023-03-20T16:24:33;76.78;;;35.75;;
43646;SDS011;56152;49.996;18.980;2023-03-20T16:29:40;72.30;;;35.53;;
43646;SDS011;56152;49.996;18.980;2023-03-20T16:34:45;49.13;;;31.13;;
43646;SDS011;56152;49.996;18.980;2023-03-20T16:40:01;49.95;;;28.17;;
43646;SDS011;56152;49.996;18.980;2023-03-20T16:45:14;48.17;;;28.05;;
43646;SDS011;56152;49.996;18.980;2023-03-20T16:50:24;36.42;;;21.63;;
43646;SDS011;56152;49.996;18.980;2023-03-20T16:55:36;36.17;;;20.88;;
43646;SDS011;56152;49.996;18.980;2023-03-20T17:00:47;33.97;;;20.48;;
43646;SDS011;56152;49.996;18.980;2023-03-20T17:05:57;30.80;;;18.00;;
43646;SDS011;56152;49.996;18.980;2023-03-20T17:11:08;33.33;;;21.42;;
43646;SDS011;56152;49.996;18.980;2023-03-20T17:16:15;46.75;;;27.02;;
43646;SDS011;56152;49.996;18.980;2023-03-20T17:21:20;75.80;;;42.00;;
43646;SDS011;56152;49.996;18.980;2023-03-20T17:26:22;71.00;;;41.10;;
43646;SDS011;56152;49.996;18.980;2023-03-20T17:31:26;113.80;;;60.15;;
43646;SDS011;56152;49.996;18.980;2023-03-20T17:36:29;74.13;;;44.83;;
43646;SDS011;56152;49.996;18.980;2023-03-20T17:41:33;85.85;;;48.50;;
43646;SDS011;56152;49.996;18.980;2023-03-20T17:46:39;95.72;;;56.20;;
43646;SDS011;56152;49.996;18.980;2023-03-20T17:51:42;100.15;;;57.33;;
43646;SDS011;56152;49.996;18.980;2023-03-20T17:56:44;87.65;;;53.53;;
43646;SDS011;56152;49.996;18.980;2023-03-20T18:01:50;96.53;;;58.00;;
43646;SDS011;56152;49.996;18.980;2023-03-20T18:06:53;166.77;;;88.20;;
43646;SDS011;56152;49.996;18.980;2023-03-20T18:11:55;96.50;;;50.30;;
43646;SDS011;56152;49.996;18.980;2023-03-20T18:17:03;98.68;;;47.30;;
43646;SDS011;56152;49.996;18.980;2023-03-20T18:22:05;89.85;;;49.13;;
43646;SDS011;56152;49.996;18.980;2023-03-20T18:27:08;260.23;;;127.65;;
43646;SDS011;56152;49.996;18.980;2023-03-20T18:32:13;95.95;;;54.28;;
43646;SDS011;56152;49.996;18.980;2023-03-20T18:37:15;87.43;;;52.05;;
43646;SDS011;56152;49.996;18.980;2023-03-20T18:42:17;53.78;;;35.05;;
43646;SDS011;56152;49.996;18.980;2023-03-20T18:47:21;61.83;;;35.05;;
43646;SDS011;56152;49.996;18.980;2023-03-20T18:52:29;53.83;;;33.85;;
43646;SDS011;56152;49.996;18.980;2023-03-20T18:57:32;47.05;;;31.08;;
43646;SDS011;56152;49.996;18.980;2023-03-20T19:02:39;38.05;;;25.10;;
43646;SDS011;56152;49.996;18.980;2023-03-20T19:07:42;31.13;;;22.02;;
43646;SDS011;56152;49.996;18.980;2023-03-20T19:12:44;29.38;;;19.17;;
43646;SDS011;56152;49.996;18.980;2023-03-20T19:17:50;35.65;;;22.65;;
43646;SDS011;56152;49.996;18.980;2023-03-20T19:22:52;59.47;;;36.45;;
43646;SDS011;56152;49.996;18.980;2023-03-20T19:27:55;44.17;;;27.85;;
43646;SDS011;56152;49.996;18.980;2023-03-20T19:33:00;52.13;;;34.17;;
43646;SDS011;56152;49.996;18.980;2023-03-20T19:38:04;49.17;;;32.03;;
43646;SDS011;56152;49.996;18.980;2023-03-20T19:43:06;36.85;;;24.13;;
43646;SDS011;56152;49.996;18.980;2023-03-20T19:48:15;70.78;;;43.65;;
43646;SDS011;56152;49.996;18.980;2023-03-20T19:53:25;47.20;;;29.00;;
43646;SDS011;56152;49.996;18.980;2023-03-20T19:58:37;66.77;;;39.83;;
43646;SDS011;56152;49.996;18.980;2023-03-20T20:03:46;72.82;;;42.50;;
43646;SDS011;56152;49.996;18.980;2023-03-20T20:08:48;88.10;;;49.60;;
43646;SDS011;56152;49.996;18.980;2023-03-20T20:13:51;75.53;;;46.72;;
43646;SDS011;56152;49.996;18.980;2023-03-20T20:18:56;58.70;;;35.38;;
43646;SDS011;56152;49.996;18.980;2023-03-20T20:24:00;59.58;;;34.83;;
43646;SDS011;56152;49.996;18.980;2023-03-20T20:29:02;62.90;;;36.85;;
43646;SDS011;56152;49.996;18.980;2023-03-20T20:34:07;67.05;;;37.65;;
43646;SDS011;56152;49.996;18.980;2023-03-20T20:39:09;46.83;;;29.38;;
43646;SDS011;56152;49.996;18.980;2023-03-20T20:44:11;46.35;;;25.75;;
43646;SDS011;56152;49.996;18.980;2023-03-20T20:49:17;41.25;;;25.20;;
43646;SDS011;56152;49.996;18.980;2023-03-20T20:54:19;40.33;;;21.83;;
43646;SDS011;56152;49.996;18.980;2023-03-20T20:59:22;45.10;;;25.10;;
43646;SDS011;56152;49.996;18.980;2023-03-20T21:04:26;38.70;;;23.98;;
43646;SDS011;56152;49.996;18.980;2023-03-20T21:09:29;36.78;;;24.88;;
43646;SDS011;56152;49.996;18.980;2023-03-20T21:14:31;41.22;;;28.83;;
43646;SDS011;56152;49.996;18.980;2023-03-20T21:19:36;30.88;;;21.48;;
43646;SDS011;56152;49.996;18.980;2023-03-20T21:24:41;36.60;;;25.08;;
43646;SDS011;56152;49.996;18.980;2023-03-20T21:29:45;41.65;;;24.27;;
43646;SDS011;56152;49.996;18.980;2023-03-20T21:34:50;31.90;;;22.52;;
43646;SDS011;56152;49.996;18.980;2023-03-20T21:39:55;32.03;;;21.02;;
43646;SDS011;56152;49.996;18.980;2023-03-20T21:44:59;29.65;;;21.15;;
43646;SDS011;56152;49.996;18.980;2023-03-20T21:50:04;27.50;;;18.30;;
43646;SDS011;56152;49.996;18.980;2023-03-20T21:55:07;31.30;;;21.23;;
43646;SDS011;56152;49.996;18.980;2023-03-20T22:00:10;37.80;;;26.38;;
43646;SDS011;56152;49.996;18.980;2023-03-20T22:05:15;44.08;;;29.52;;
43646;SDS011;56152;49.996;18.980;2023-03-20T22:10:18;30.63;;;20.52;;
43646;SDS011;56152;49.996;18.980;2023-03-20T22:15:21;26.98;;;19.00;;
43646;SDS011;56152;49.996;18.980;2023-03-20T22:20:25;36.40;;;23.20;;
43646;SDS011;56152;49.996;18.980;2023-03-20T22:25:28;37.15;;;25.85;;
43646;SDS011;56152;49.996;18.980;2023-03-20T22:30:30;42.70;;;27.25;;
43646;SDS011;56152;49.996;18.980;2023-03-20T22:35:39;44.85;;;31.40;;
43646;SDS011;56152;49.996;18.980;2023-03-20T22:40:45;44.58;;;30.27;;
43646;SDS011;56152;49.996;18.980;2023-03-20T22:51:53;45.00;;;32.30;;
43646;SDS011;56152;49.996;18.980;2023-03-20T22:56:55;49.03;;;32.40;;
43646;SDS011;56152;49.996;18.980;2023-03-20T23:01:58;33.70;;;25.27;;
43646;SDS011;56152;49.996;18.980;2023-03-20T23:07:02;37.50;;;23.67;;
43646;SDS011;56152;49.996;18.980;2023-03-20T23:12:04;32.10;;;23.92;;
43646;SDS011;56152;49.996;18.980;2023-03-20T23:17:07;32.13;;;23.55;;
43646;SDS011;56152;49.996;18.980;2023-03-20T23:22:12;28.92;;;22.50;;
43646;SDS011;56152;49.996;18.980;2023-03-20T23:27:16;33.28;;;23.92;;
43646;SDS011;56152;49.996;18.980;2023-03-20T23:32:19;32.63;;;22.55;;
43646;SDS011;56152;49.996;18.980;2023-03-20T23:37:24;30.83;;;23.85;;
43646;SDS011;56152;49.996;18.980;2023-03-20T23:42:26;32.40;;;24.05;;
43646;SDS011;56152;49.996;18.980;2023-03-20T23:47:28;37.28;;;27.55;;
43646;SDS011;56152;49.996;18.980;2023-03-20T23:57:36;38.22;;;27.50;;
